sensor_id;sensor_type;location;lat;lon;timestamp;P1;P2;P0
55304;PMS7003;65692;51.378;19.824;2023-05-07T04:43:10;1.50;1.50;0.75
55304;PMS7003;65692;51.378;19.824;2023-05-07T04:45:59;1.00;1.00;1.00
55304;PMS7003;65692;51.378;19.824;2023-05-07T04:52:16;2.00;2.00;2.00
55304;PMS7003;65692;51.378;19.824;2023-05-07T08:03:53;4.25;4.25;3.50
55304;PMS7003;65692;51.378;19.824;2023-05-07T09:52:54;7.00;7.00;5.75
55304;PMS7003;65692;51.378;19.824;2023-05-07T09:55:21;7.75;6.50;4.25
55304;PMS7003;65692;51.378;19.824;2023-05-07T09:57:52;8.00;7.75;6.50
55304;PMS7003;65692;51.378;19.824;2023-05-07T10:00:20;7.50;5.50;4.25
55304;PMS7003;65692;51.378;19.824;2023-05-07T10:02:51;4.50;4.50;4.00
55304;PMS7003;65692;51.378;19.824;2023-05-07T10:05:18;7.00;5.00;4.00
55304;PMS7003;65692;51.378;19.824;2023-05-07T10:07:48;9.00;7.00;4.50
55304;PMS7003;65692;51.378;19.824;2023-05-07T10:10:15;8.50;8.50;7.50
55304;PMS7003;65692;51.378;19.824;2023-05-07T10:12:43;7.75;7.50;6.50
55304;PMS7003;65692;51.378;19.824;2023-05-07T10:15:10;6.25;6.25;5.00
55304;PMS7003;65692;51.378;19.824;2023-05-07T10:17:38;5.75;5.75;4.25
55304;PMS7003;65692;51.378;19.824;2023-05-07T10:20:05;8.50;6.75;5.50
55304;PMS7003;65692;51.378;19.824;2023-05-07T10:22:43;9.75;7.00;5.75
55304;PMS7003;65692;51.378;19.824;2023-05-07T10:25:20;6.00;5.75;5.00
55304;PMS7003;65692;51.378;19.824;2023-05-07T10:27:47;7.00;7.00;6.00
55304;PMS7003;65692;51.378;19.824;2023-05-07T10:30:26;7.50;7.00;5.25
55304;PMS7003;65692;51.378;19.824;2023-05-07T10:32:59;6.50;4.00;3.75
55304;PMS7003;65692;51.378;19.824;2023-05-07T10:35:39;7.00;7.00;6.50
55304;PMS7003;65692;51.378;19.824;2023-05-07T10:38:07;6.50;6.50;4.75
55304;PMS7003;65692;51.378;19.824;2023-05-07T10:40:34;5.50;5.50;5.00
55304;PMS7003;65692;51.378;19.824;2023-05-07T10:43:01;8.25;6.75;5.00
55304;PMS7003;65692;51.378;19.824;2023-05-07T10:45:28;6.25;6.00;5.50
55304;PMS7003;65692;51.378;19.824;2023-05-07T10:50:56;8.50;8.00;7.00
55304;PMS7003;65692;51.378;19.824;2023-05-07T10:53:40;4.50;4.50;3.50
55304;PMS7003;65692;51.378;19.824;2023-05-07T10:58:45;8.00;7.75;7.50
55304;PMS7003;65692;51.378;19.824;2023-05-07T11:01:12;8.33;8.33;7.00
55304;PMS7003;65692;51.378;19.824;2023-05-07T11:04:15;8.50;8.50;7.50
55304;PMS7003;65692;51.378;19.824;2023-05-07T11:06:33;9.25;7.25;5.50
55304;PMS7003;65692;51.378;19.824;2023-05-07T11:09:00;9.25;8.00;6.00
55304;PMS7003;65692;51.378;19.824;2023-05-07T11:17:23;5.50;5.00;4.25
55304;PMS7003;65692;51.378;19.824;2023-05-07T11:19:51;4.00;4.00;3.75
55304;PMS7003;65692;51.378;19.824;2023-05-07T11:25:00;9.00;6.00;5.75
55304;PMS7003;65692;51.378;19.824;2023-05-07T11:27:26;6.00;5.00;4.25
55304;PMS7003;65692;51.378;19.824;2023-05-07T11:29:53;2.00;1.75;1.00
55304;PMS7003;65692;51.378;19.824;2023-05-07T11:32:30;11.25;9.00;8.00
55304;PMS7003;65692;51.378;19.824;2023-05-07T11:34:57;9.00;8.50;7.75
55304;PMS7003;65692;51.378;19.824;2023-05-07T11:37:25;9.50;8.00;7.50
55304;PMS7003;65692;51.378;19.824;2023-05-07T11:40:05;6.50;4.50;4.00
55304;PMS7003;65692;51.378;19.824;2023-05-07T11:42:33;10.00;6.25;4.75
55304;PMS7003;65692;51.378;19.824;2023-05-07T11:45:00;7.00;5.25;5.25
55304;PMS7003;65692;51.378;19.824;2023-05-07T11:47:30;7.50;4.75;4.25
55304;PMS7003;65692;51.378;19.824;2023-05-07T11:49:56;8.00;7.00;5.00
55304;PMS7003;65692;51.378;19.824;2023-05-07T11:52:24;11.25;6.50;5.00
55304;PMS7003;65692;51.378;19.824;2023-05-07T11:54:51;6.00;5.50;5.00
55304;PMS7003;65692;51.378;19.824;2023-05-07T11:57:19;6.75;6.75;5.00
55304;PMS7003;65692;51.378;19.824;2023-05-07T11:59:46;5.50;5.00;4.50
55304;PMS7003;65692;51.378;19.824;2023-05-07T12:02:14;5.75;4.00;3.25
55304;PMS7003;65692;51.378;19.824;2023-05-07T12:04:41;0.00;0.00;0.00
55304;PMS7003;65692;51.378;19.824;2023-05-07T12:07:14;21.75;20.75;14.25
55304;PMS7003;65692;51.378;19.824;2023-05-07T12:09:42;7.50;7.50;6.25
55304;PMS7003;65692;51.378;19.824;2023-05-07T12:12:09;7.25;5.50;4.75
55304;PMS7003;65692;51.378;19.824;2023-05-07T12:14:42;8.25;5.25;4.50
55304;PMS7003;65692;51.378;19.824;2023-05-07T12:17:10;7.00;7.00;5.50
55304;PMS7003;65692;51.378;19.824;2023-05-07T12:19:37;6.25;6.25;5.00
55304;PMS7003;65692;51.378;19.824;2023-05-07T12:22:04;5.50;5.50;5.00
55304;PMS7003;65692;51.378;19.824;2023-05-07T12:24:44;6.00;6.00;5.50
55304;PMS7003;65692;51.378;19.824;2023-05-07T12:27:11;7.75;6.00;5.00
55304;PMS7003;65692;51.378;19.824;2023-05-07T12:29:37;7.75;5.75;5.00
55304;PMS7003;65692;51.378;19.824;2023-05-07T12:32:06;8.50;5.25;4.25
55304;PMS7003;65692;51.378;19.824;2023-05-07T12:34:33;4.00;4.00;4.00
55304;PMS7003;65692;51.378;19.824;2023-05-07T12:37:01;6.00;6.00;5.00
55304;PMS7003;65692;51.378;19.824;2023-05-07T12:39:28;4.00;4.00;3.00
55304;PMS7003;65692;51.378;19.824;2023-05-07T12:41:55;4.00;4.00;4.00
55304;PMS7003;65692;51.378;19.824;2023-05-07T12:44:22;6.00;5.50;4.00
55304;PMS7003;65692;51.378;19.824;2023-05-07T12:46:50;5.00;5.00;4.00
55304;PMS7003;65692;51.378;19.824;2023-05-07T12:49:17;4.50;4.00;4.00
55304;PMS7003;65692;51.378;19.824;2023-05-07T12:51:50;5.50;4.00;4.00
55304;PMS7003;65692;51.378;19.824;2023-05-07T12:54:32;7.50;5.00;5.00
55304;PMS7003;65692;51.378;19.824;2023-05-07T12:57:06;6.00;6.00;5.00
55304;PMS7003;65692;51.378;19.824;2023-05-07T12:59:33;5.25;5.25;4.75
55304;PMS7003;65692;51.378;19.824;2023-05-07T13:02:00;5.25;5.25;4.25
55304;PMS7003;65692;51.378;19.824;2023-05-07T13:04:27;4.00;3.25;3.25
55304;PMS7003;65692;51.378;19.824;2023-05-07T13:06:54;6.25;5.50;4.00
55304;PMS7003;65692;51.378;19.824;2023-05-07T13:09:21;6.50;5.00;4.00
55304;PMS7003;65692;51.378;19.824;2023-05-07T13:11:47;5.00;5.00;4.00
55304;PMS7003;65692;51.378;19.824;2023-05-07T13:14:14;5.50;5.50;4.50
55304;PMS7003;65692;51.378;19.824;2023-05-07T13:16:41;6.25;5.00;4.00
55304;PMS7003;65692;51.378;19.824;2023-05-07T13:19:08;6.25;3.00;2.00
55304;PMS7003;65692;51.378;19.824;2023-05-07T13:21:34;3.00;2.75;2.00
55304;PMS7003;65692;51.378;19.824;2023-05-07T13:24:01;3.00;3.00;3.00
55304;PMS7003;65692;51.378;19.824;2023-05-07T13:26:29;7.75;5.00;4.50
55304;PMS7003;65692;51.378;19.824;2023-05-07T13:28:56;5.00;5.00;5.00
55304;PMS7003;65692;51.378;19.824;2023-05-07T13:31:23;3.25;3.00;2.25
55304;PMS7003;65692;51.378;19.824;2023-05-07T13:33:50;5.00;5.00;3.75
55304;PMS7003;65692;51.378;19.824;2023-05-07T13:36:17;6.75;4.25;4.00
55304;PMS7003;65692;51.378;19.824;2023-05-07T13:38:44;7.25;5.00;4.00
55304;PMS7003;65692;51.378;19.824;2023-05-07T13:41:10;6.00;6.00;5.00
55304;PMS7003;65692;51.378;19.824;2023-05-07T13:43:39;5.25;4.00;4.00
55304;PMS7003;65692;51.378;19.824;2023-05-07T13:46:05;4.50;4.00;3.50
55304;PMS7003;65692;51.378;19.824;2023-05-07T13:48:32;5.50;3.25;3.00
55304;PMS7003;65692;51.378;19.824;2023-05-07T13:50:58;4.75;4.75;4.00
55304;PMS7003;65692;51.378;19.824;2023-05-07T13:53:25;3.75;3.75;3.00
55304;PMS7003;65692;51.378;19.824;2023-05-07T13:55:51;4.25;4.25;4.00
55304;PMS7003;65692;51.378;19.824;2023-05-07T13:58:18;6.50;6.00;5.75
55304;PMS7003;65692;51.378;19.824;2023-05-07T14:00:45;7.00;4.75;3.75
55304;PMS7003;65692;51.378;19.824;2023-05-07T14:03:12;8.00;4.00;3.00
55304;PMS7003;65692;51.378;19.824;2023-05-07T14:05:39;6.50;5.00;4.00
55304;PMS7003;65692;51.378;19.824;2023-05-07T14:08:05;7.25;4.75;4.00
55304;PMS7003;65692;51.378;19.824;2023-05-07T14:10:34;4.50;4.50;4.00
55304;PMS7003;65692;51.378;19.824;2023-05-07T14:13:01;4.75;4.00;3.75
55304;PMS7003;65692;51.378;19.824;2023-05-07T14:15:28;3.25;3.25;2.75
55304;PMS7003;65692;51.378;19.824;2023-05-07T14:17:54;3.00;3.00;3.00
55304;PMS7003;65692;51.378;19.824;2023-05-07T14:20:21;5.25;4.00;3.75
55304;PMS7003;65692;51.378;19.824;2023-05-07T14:22:48;1.25;1.25;1.00
55304;PMS7003;65692;51.378;19.824;2023-05-07T14:25:14;5.00;5.00;4.25
55304;PMS7003;65692;51.378;19.824;2023-05-07T14:27:41;3.25;3.25;3.00
55304;PMS7003;65692;51.378;19.824;2023-05-07T14:30:08;3.75;3.75;3.00
55304;PMS7003;65692;51.378;19.824;2023-05-07T14:32:35;7.00;6.25;4.50
55304;PMS7003;65692;51.378;19.824;2023-05-07T14:35:02;7.75;7.75;6.25
55304;PMS7003;65692;51.378;19.824;2023-05-07T14:37:28;10.00;10.00;8.25
55304;PMS7003;65692;51.378;19.824;2023-05-07T14:39:55;4.00;4.00;3.75
55304;PMS7003;65692;51.378;19.824;2023-05-07T14:42:22;7.75;6.50;5.00
55304;PMS7003;65692;51.378;19.824;2023-05-07T14:44:48;4.00;4.00;4.00
55304;PMS7003;65692;51.378;19.824;2023-05-07T14:47:15;3.25;3.25;3.25
55304;PMS7003;65692;51.378;19.824;2023-05-07T14:49:45;3.25;3.25;3.00
55304;PMS7003;65692;51.378;19.824;2023-05-07T14:52:11;7.25;5.00;5.00
55304;PMS7003;65692;51.378;19.824;2023-05-07T14:54:38;7.50;4.00;3.25
55304;PMS7003;65692;51.378;19.824;2023-05-07T14:57:05;5.00;5.00;5.00
55304;PMS7003;65692;51.378;19.824;2023-05-07T14:59:32;3.25;3.25;2.25
55304;PMS7003;65692;51.378;19.824;2023-05-07T15:01:58;7.50;5.00;4.00
55304;PMS7003;65692;51.378;19.824;2023-05-07T15:04:26;4.00;3.25;3.00
55304;PMS7003;65692;51.378;19.824;2023-05-07T15:06:53;4.00;4.00;3.00
55304;PMS7003;65692;51.378;19.824;2023-05-07T15:09:22;5.75;4.00;4.00
55304;PMS7003;65692;51.378;19.824;2023-05-07T15:11:49;3.75;3.25;3.00
55304;PMS7003;65692;51.378;19.824;2023-05-07T15:14:15;10.00;6.00;5.00
55304;PMS7003;65692;51.378;19.824;2023-05-07T15:16:42;5.00;3.00;3.00
55304;PMS7003;65692;51.378;19.824;2023-05-07T15:19:08;6.50;4.50;4.25
55304;PMS7003;65692;51.378;19.824;2023-05-07T15:21:38;5.00;5.00;5.00
55304;PMS7003;65692;51.378;19.824;2023-05-07T15:24:05;5.00;5.00;4.50
55304;PMS7003;65692;51.378;19.824;2023-05-07T15:26:31;6.50;6.25;5.00
55304;PMS7003;65692;51.378;19.824;2023-05-07T15:28:58;7.50;4.00;4.00
55304;PMS7003;65692;51.378;19.824;2023-05-07T15:31:27;2.75;2.75;1.75
55304;PMS7003;65692;51.378;19.824;2023-05-07T15:33:53;4.50;4.50;4.00
55304;PMS7003;65692;51.378;19.824;2023-05-07T15:36:20;5.00;5.00;3.75
55304;PMS7003;65692;51.378;19.824;2023-05-07T15:38:47;4.50;4.50;3.50
55304;PMS7003;65692;51.378;19.824;2023-05-07T15:41:14;4.00;4.00;3.75
55304;PMS7003;65692;51.378;19.824;2023-05-07T15:43:44;4.25;4.00;4.00
55304;PMS7003;65692;51.378;19.824;2023-05-07T15:46:12;7.50;4.25;3.75
55304;PMS7003;65692;51.378;19.824;2023-05-07T15:48:38;4.75;4.75;4.00
55304;PMS7003;65692;51.378;19.824;2023-05-07T15:51:07;3.25;3.25;3.00
55304;PMS7003;65692;51.378;19.824;2023-05-07T15:53:35;4.50;4.50;4.25
55304;PMS7003;65692;51.378;19.824;2023-05-07T15:56:03;7.75;6.00;4.75
55304;PMS7003;65692;51.378;19.824;2023-05-07T15:58:29;3.00;3.00;2.75
55304;PMS7003;65692;51.378;19.824;2023-05-07T16:00:56;4.00;4.00;3.25
55304;PMS7003;65692;51.378;19.824;2023-05-07T16:03:22;5.25;5.00;3.75
55304;PMS7003;65692;51.378;19.824;2023-05-07T16:05:49;5.00;4.00;3.00
55304;PMS7003;65692;51.378;19.824;2023-05-07T16:08:16;8.50;6.75;4.75
55304;PMS7003;65692;51.378;19.824;2023-05-07T16:10:43;8.25;4.75;4.75
55304;PMS7003;65692;51.378;19.824;2023-05-07T16:13:09;5.50;5.50;5.00
55304;PMS7003;65692;51.378;19.824;2023-05-07T16:15:36;2.00;2.00;2.00
55304;PMS7003;65692;51.378;19.824;2023-05-07T16:18:03;4.00;4.00;3.75
55304;PMS7003;65692;51.378;19.824;2023-05-07T16:20:30;7.50;4.00;3.00
55304;PMS7003;65692;51.378;19.824;2023-05-07T16:22:57;4.75;4.50;4.00
55304;PMS7003;65692;51.378;19.824;2023-05-07T16:25:24;6.75;4.25;3.75
55304;PMS7003;65692;51.378;19.824;2023-05-07T16:27:51;3.25;3.25;3.00
55304;PMS7003;65692;51.378;19.824;2023-05-07T16:30:18;7.00;4.50;4.00
55304;PMS7003;65692;51.378;19.824;2023-05-07T16:32:45;8.00;5.00;5.00
55304;PMS7003;65692;51.378;19.824;2023-05-07T16:35:11;4.25;3.50;3.00
55304;PMS7003;65692;51.378;19.824;2023-05-07T16:37:39;5.00;3.75;3.25
55304;PMS7003;65692;51.378;19.824;2023-05-07T16:40:06;3.25;3.25;3.00
55304;PMS7003;65692;51.378;19.824;2023-05-07T16:42:34;5.25;5.25;4.50
55304;PMS7003;65692;51.378;19.824;2023-05-07T16:45:01;4.00;4.00;3.75
55304;PMS7003;65692;51.378;19.824;2023-05-07T16:47:30;4.00;4.00;3.25
55304;PMS7003;65692;51.378;19.824;2023-05-07T16:49:57;4.50;4.25;4.00
55304;PMS7003;65692;51.378;19.824;2023-05-07T16:52:28;5.50;4.00;3.00
55304;PMS7003;65692;51.378;19.824;2023-05-07T16:54:55;6.00;4.00;3.00
55304;PMS7003;65692;51.378;19.824;2023-05-07T16:57:26;5.25;5.25;4.25
55304;PMS7003;65692;51.378;19.824;2023-05-07T16:59:54;10.50;4.50;3.50
55304;PMS7003;65692;51.378;19.824;2023-05-07T17:02:24;6.50;4.00;3.50
55304;PMS7003;65692;51.378;19.824;2023-05-07T17:04:50;9.00;8.00;7.00
55304;PMS7003;65692;51.378;19.824;2023-05-07T17:07:17;5.25;5.25;3.75
55304;PMS7003;65692;51.378;19.824;2023-05-07T17:09:43;5.25;5.25;4.25
55304;PMS7003;65692;51.378;19.824;2023-05-07T17:12:10;4.50;4.50;4.00
55304;PMS7003;65692;51.378;19.824;2023-05-07T17:14:36;11.50;8.75;7.25
55304;PMS7003;65692;51.378;19.824;2023-05-07T17:17:03;7.75;4.00;3.50
55304;PMS7003;65692;51.378;19.824;2023-05-07T17:19:30;9.00;7.00;5.00
55304;PMS7003;65692;51.378;19.824;2023-05-07T17:21:56;10.25;7.25;6.00
55304;PMS7003;65692;51.378;19.824;2023-05-07T17:24:23;8.00;8.00;6.50
55304;PMS7003;65692;51.378;19.824;2023-05-07T17:26:50;9.75;9.50;6.75
55304;PMS7003;65692;51.378;19.824;2023-05-07T17:29:17;9.75;8.75;7.00
55304;PMS7003;65692;51.378;19.824;2023-05-07T17:31:45;8.00;8.00;5.00
55304;PMS7003;65692;51.378;19.824;2023-05-07T17:34:13;8.75;8.75;6.25
55304;PMS7003;65692;51.378;19.824;2023-05-07T17:36:39;7.25;7.00;5.50
55304;PMS7003;65692;51.378;19.824;2023-05-07T17:39:06;5.00;5.00;4.00
55304;PMS7003;65692;51.378;19.824;2023-05-07T17:41:35;10.00;8.00;7.25
55304;PMS7003;65692;51.378;19.824;2023-05-07T17:44:05;13.50;11.00;8.75
55304;PMS7003;65692;51.378;19.824;2023-05-07T17:46:32;10.75;9.25;8.25
55304;PMS7003;65692;51.378;19.824;2023-05-07T17:48:58;8.50;8.50;7.00
55304;PMS7003;65692;51.378;19.824;2023-05-07T17:51:25;13.50;8.75;7.00
55304;PMS7003;65692;51.378;19.824;2023-05-07T17:53:55;10.50;9.50;9.00
55304;PMS7003;65692;51.378;19.824;2023-05-07T17:56:22;12.00;11.00;9.00
55304;PMS7003;65692;51.378;19.824;2023-05-07T17:58:48;10.75;8.50;8.00
55304;PMS7003;65692;51.378;19.824;2023-05-07T18:01:18;6.50;6.50;5.00
55304;PMS7003;65692;51.378;19.824;2023-05-07T18:03:44;9.25;8.00;5.25
55304;PMS7003;65692;51.378;19.824;2023-05-07T18:06:11;9.50;9.50;8.00
55304;PMS7003;65692;51.378;19.824;2023-05-07T18:08:43;8.50;8.50;7.50
55304;PMS7003;65692;51.378;19.824;2023-05-07T18:11:10;10.75;8.75;7.50
55304;PMS7003;65692;51.378;19.824;2023-05-07T18:13:37;12.25;8.50;7.25
55304;PMS7003;65692;51.378;19.824;2023-05-07T18:16:04;16.75;13.00;10.50
55304;PMS7003;65692;51.378;19.824;2023-05-07T18:18:30;14.75;9.75;8.75
55304;PMS7003;65692;51.378;19.824;2023-05-07T18:20:57;11.75;9.75;7.50
55304;PMS7003;65692;51.378;19.824;2023-05-07T18:23:24;14.50;10.50;9.25
55304;PMS7003;65692;51.378;19.824;2023-05-07T18:25:51;10.75;10.75;9.00
55304;PMS7003;65692;51.378;19.824;2023-05-07T18:28:17;11.50;8.25;7.00
55304;PMS7003;65692;51.378;19.824;2023-05-07T18:30:44;8.75;7.00;6.50
55304;PMS7003;65692;51.378;19.824;2023-05-07T18:33:11;7.00;7.00;5.50
55304;PMS7003;65692;51.378;19.824;2023-05-07T18:35:38;7.00;7.00;4.00
55304;PMS7003;65692;51.378;19.824;2023-05-07T18:38:05;7.50;5.25;5.25
55304;PMS7003;65692;51.378;19.824;2023-05-07T18:40:31;7.50;7.00;6.25
55304;PMS7003;65692;51.378;19.824;2023-05-07T18:42:58;7.00;7.00;6.00
55304;PMS7003;65692;51.378;19.824;2023-05-07T18:45:25;7.00;4.75;4.00
55304;PMS7003;65692;51.378;19.824;2023-05-07T18:47:53;5.50;5.50;4.50
55304;PMS7003;65692;51.378;19.824;2023-05-07T18:50:19;7.00;7.00;6.50
55304;PMS7003;65692;51.378;19.824;2023-05-07T18:52:46;8.00;8.00;6.25
55304;PMS7003;65692;51.378;19.824;2023-05-07T18:55:13;9.25;7.50;6.25
55304;PMS7003;65692;51.378;19.824;2023-05-07T18:57:39;17.50;14.25;11.25
55304;PMS7003;65692;51.378;19.824;2023-05-07T19:00:06;10.00;7.00;6.00
55304;PMS7003;65692;51.378;19.824;2023-05-07T19:02:34;13.75;8.75;7.00
55304;PMS7003;65692;51.378;19.824;2023-05-07T19:05:01;12.00;11.00;8.75
55304;PMS7003;65692;51.378;19.824;2023-05-07T19:07:27;16.75;13.00;10.00
55304;PMS7003;65692;51.378;19.824;2023-05-07T19:09:54;17.75;16.75;12.50
55304;PMS7003;65692;51.378;19.824;2023-05-07T19:12:30;17.67;16.67;11.00
55304;PMS7003;65692;51.378;19.824;2023-05-07T19:14:57;19.33;18.33;16.33
55304;PMS7003;65692;51.378;19.824;2023-05-07T19:17:24;21.00;19.67;16.00
55304;PMS7003;65692;51.378;19.824;2023-05-07T19:19:50;34.25;31.00;23.00
55304;PMS7003;65692;51.378;19.824;2023-05-07T19:22:17;39.25;33.75;22.25
55304;PMS7003;65692;51.378;19.824;2023-05-07T19:24:43;45.25;29.25;22.75
55304;PMS7003;65692;51.378;19.824;2023-05-07T19:27:10;34.00;29.33;21.67
55304;PMS7003;65692;51.378;19.824;2023-05-07T19:29:36;37.67;28.67;22.33
55304;PMS7003;65692;51.378;19.824;2023-05-07T19:32:03;32.25;30.50;21.75
55304;PMS7003;65692;51.378;19.824;2023-05-07T19:34:30;28.33;26.00;21.00
55304;PMS7003;65692;51.378;19.824;2023-05-07T19:36:56;33.25;29.00;20.75
55304;PMS7003;65692;51.378;19.824;2023-05-07T19:39:23;31.33;25.00;19.67
55304;PMS7003;65692;51.378;19.824;2023-05-07T19:41:50;32.00;29.50;24.50
55304;PMS7003;65692;51.378;19.824;2023-05-07T19:44:16;29.67;21.67;19.00
55304;PMS7003;65692;51.378;19.824;2023-05-07T19:46:43;34.00;25.00;19.33
55304;PMS7003;65692;51.378;19.824;2023-05-07T19:49:11;20.33;19.00;14.00
55304;PMS7003;65692;51.378;19.824;2023-05-07T19:51:38;34.00;28.25;22.25
55304;PMS7003;65692;51.378;19.824;2023-05-07T19:54:05;31.25;28.75;22.50
55304;PMS7003;65692;51.378;19.824;2023-05-07T19:56:31;48.00;39.25;28.50
55304;PMS7003;65692;51.378;19.824;2023-05-07T19:58:58;46.75;40.25;28.00
55304;PMS7003;65692;51.378;19.824;2023-05-07T20:01:25;43.25;36.75;27.00
55304;PMS7003;65692;51.378;19.824;2023-05-07T20:03:53;40.25;32.25;26.25
55304;PMS7003;65692;51.378;19.824;2023-05-07T20:06:19;48.25;39.75;26.75
55304;PMS7003;65692;51.378;19.824;2023-05-07T20:08:48;37.75;32.75;26.00
55304;PMS7003;65692;51.378;19.824;2023-05-07T20:11:15;33.50;26.00;21.25
55304;PMS7003;65692;51.378;19.824;2023-05-07T20:13:42;32.00;27.50;20.25
55304;PMS7003;65692;51.378;19.824;2023-05-07T20:16:09;33.00;24.50;20.25
55304;PMS7003;65692;51.378;19.824;2023-05-07T20:18:35;51.25;41.75;30.00
55304;PMS7003;65692;51.378;19.824;2023-05-07T20:21:02;59.00;40.75;28.50
55304;PMS7003;65692;51.378;19.824;2023-05-07T20:23:30;18.50;16.00;9.75
55304;PMS7003;65692;51.378;19.824;2023-05-07T20:25:56;27.00;25.50;19.25
55304;PMS7003;65692;51.378;19.824;2023-05-07T20:28:24;32.50;30.75;19.50
55304;PMS7003;65692;51.378;19.824;2023-05-07T20:30:51;37.75;34.25;26.25
55304;PMS7003;65692;51.378;19.824;2023-05-07T20:33:17;44.50;39.75;29.50
55304;PMS7003;65692;51.378;19.824;2023-05-07T20:35:44;56.00;48.25;35.25
55304;PMS7003;65692;51.378;19.824;2023-05-07T20:38:11;59.75;47.50;33.75
55304;PMS7003;65692;51.378;19.824;2023-05-07T20:40:39;40.75;36.00;28.50
55304;PMS7003;65692;51.378;19.824;2023-05-07T20:43:05;39.25;34.50;23.75
55304;PMS7003;65692;51.378;19.824;2023-05-07T20:45:32;34.00;32.25;22.50
55304;PMS7003;65692;51.378;19.824;2023-05-07T20:47:59;34.25;31.00;23.50
55304;PMS7003;65692;51.378;19.824;2023-05-07T20:50:28;30.25;28.00;21.50
55304;PMS7003;65692;51.378;19.824;2023-05-07T20:52:55;29.75;24.25;19.00
55304;PMS7003;65692;51.378;19.824;2023-05-07T20:55:21;28.75;26.25;21.00
55304;PMS7003;65692;51.378;19.824;2023-05-07T20:57:48;24.75;22.50;17.25
55304;PMS7003;65692;51.378;19.824;2023-05-07T21:00:15;22.50;22.50;17.25
55304;PMS7003;65692;51.378;19.824;2023-05-07T21:02:43;24.75;20.50;17.00
55304;PMS7003;65692;51.378;19.824;2023-05-07T21:05:09;16.50;15.75;12.25
55304;PMS7003;65692;51.378;19.824;2023-05-07T21:07:36;13.00;8.25;4.25
55304;PMS7003;65692;51.378;19.824;2023-05-07T21:10:03;30.00;26.25;19.50
55304;PMS7003;65692;51.378;19.824;2023-05-07T21:12:30;30.00;26.75;20.50
55304;PMS7003;65692;51.378;19.824;2023-05-07T21:14:56;28.75;20.00;16.00
55304;PMS7003;65692;51.378;19.824;2023-05-07T21:17:23;48.50;43.25;30.50
55304;PMS7003;65692;51.378;19.824;2023-05-07T21:19:50;50.00;40.25;29.50
55304;PMS7003;65692;51.378;19.824;2023-05-07T21:22:16;53.00;41.25;31.00
55304;PMS7003;65692;51.378;19.824;2023-05-07T21:24:43;37.75;29.50;17.50
55304;PMS7003;65692;51.378;19.824;2023-05-07T21:27:12;48.75;36.50;26.00
55304;PMS7003;65692;51.378;19.824;2023-05-07T21:29:39;54.25;42.00;30.00
55304;PMS7003;65692;51.378;19.824;2023-05-07T21:32:06;49.75;41.75;30.00
55304;PMS7003;65692;51.378;19.824;2023-05-07T21:34:32;40.50;37.75;27.00
55304;PMS7003;65692;51.378;19.824;2023-05-07T21:36:59;37.00;33.00;22.75
55304;PMS7003;65692;51.378;19.824;2023-05-07T21:39:26;41.00;35.00;27.00
55304;PMS7003;65692;51.378;19.824;2023-05-07T21:41:52;38.00;32.00;23.50
55304;PMS7003;65692;51.378;19.824;2023-05-07T21:44:19;29.75;23.00;20.50
55304;PMS7003;65692;51.378;19.824;2023-05-07T21:46:45;48.75;38.00;26.00
55304;PMS7003;65692;51.378;19.824;2023-05-07T21:49:12;48.00;42.50;30.25
55304;PMS7003;65692;51.378;19.824;2023-05-07T21:51:38;55.50;43.00;31.25
55304;PMS7003;65692;51.378;19.824;2023-05-07T21:54:05;46.50;41.25;30.25
55304;PMS7003;65692;51.378;19.824;2023-05-07T21:56:32;44.00;40.75;30.00
55304;PMS7003;65692;51.378;19.824;2023-05-07T21:58:58;43.75;37.50;27.00
55304;PMS7003;65692;51.378;19.824;2023-05-07T22:01:25;40.50;25.75;18.25
55304;PMS7003;65692;51.378;19.824;2023-05-07T22:03:52;34.75;30.50;24.75
55304;PMS7003;65692;51.378;19.824;2023-05-07T22:06:19;28.75;25.25;20.50
55304;PMS7003;65692;51.378;19.824;2023-05-07T22:08:48;35.00;29.50;22.25
55304;PMS7003;65692;51.378;19.824;2023-05-07T22:11:15;36.50;29.25;21.50
55304;PMS7003;65692;51.378;19.824;2023-05-07T22:13:41;40.25;31.50;23.00
55304;PMS7003;65692;51.378;19.824;2023-05-07T22:16:08;43.00;36.50;26.00
55304;PMS7003;65692;51.378;19.824;2023-05-07T22:18:35;47.25;36.00;24.50
55304;PMS7003;65692;51.378;19.824;2023-05-07T22:21:02;45.25;33.50;25.50
55304;PMS7003;65692;51.378;19.824;2023-05-07T22:23:28;47.25;35.00;25.25
55304;PMS7003;65692;51.378;19.824;2023-05-07T22:25:55;38.50;35.00;25.00
55304;PMS7003;65692;51.378;19.824;2023-05-07T22:28:22;37.50;32.00;24.75
55304;PMS7003;65692;51.378;19.824;2023-05-07T22:30:49;49.75;37.75;26.25
55304;PMS7003;65692;51.378;19.824;2023-05-07T22:33:16;44.25;35.75;27.00
55304;PMS7003;65692;51.378;19.824;2023-05-07T22:35:42;44.25;41.25;31.00
55304;PMS7003;65692;51.378;19.824;2023-05-07T22:38:09;47.50;37.75;28.00
55304;PMS7003;65692;51.378;19.824;2023-05-07T22:40:36;53.00;42.25;31.00
55304;PMS7003;65692;51.378;19.824;2023-05-07T22:43:02;49.25;41.25;28.00
55304;PMS7003;65692;51.378;19.824;2023-05-07T22:45:29;41.25;36.75;25.00
55304;PMS7003;65692;51.378;19.824;2023-05-07T22:47:55;45.00;34.50;18.75
55304;PMS7003;65692;51.378;19.824;2023-05-07T22:50:22;43.50;41.75;27.50
55304;PMS7003;65692;51.378;19.824;2023-05-07T22:52:49;51.25;42.75;28.75
55304;PMS7003;65692;51.378;19.824;2023-05-07T22:55:16;46.50;39.00;29.00
55304;PMS7003;65692;51.378;19.824;2023-05-07T22:57:42;44.75;35.00;26.75
55304;PMS7003;65692;51.378;19.824;2023-05-07T23:00:09;45.50;38.50;28.50
55304;PMS7003;65692;51.378;19.824;2023-05-07T23:02:36;44.25;38.25;28.00
55304;PMS7003;65692;51.378;19.824;2023-05-07T23:05:03;33.00;29.75;21.75
55304;PMS7003;65692;51.378;19.824;2023-05-07T23:07:31;45.25;34.75;25.00
55304;PMS7003;65692;51.378;19.824;2023-05-07T23:09:58;36.50;27.50;20.00
55304;PMS7003;65692;51.378;19.824;2023-05-07T23:12:25;56.50;42.25;29.25
55304;PMS7003;65692;51.378;19.824;2023-05-07T23:14:54;58.00;48.25;32.50
55304;PMS7003;65692;51.378;19.824;2023-05-07T23:17:21;71.25;53.25;37.50
55304;PMS7003;65692;51.378;19.824;2023-05-07T23:19:47;62.75;48.50;31.00
55304;PMS7003;65692;51.378;19.824;2023-05-07T23:22:14;60.75;46.25;31.00
55304;PMS7003;65692;51.378;19.824;2023-05-07T23:24:41;63.00;50.00;33.75
55304;PMS7003;65692;51.378;19.824;2023-05-07T23:27:08;57.00;44.75;31.00
55304;PMS7003;65692;51.378;19.824;2023-05-07T23:29:34;60.50;45.50;32.75
55304;PMS7003;65692;51.378;19.824;2023-05-07T23:32:01;57.00;45.75;31.00
55304;PMS7003;65692;51.378;19.824;2023-05-07T23:34:28;66.25;49.25;32.50
55304;PMS7003;65692;51.378;19.824;2023-05-07T23:36:54;57.50;44.00;30.25
55304;PMS7003;65692;51.378;19.824;2023-05-07T23:39:21;56.50;43.75;30.00
55304;PMS7003;65692;51.378;19.824;2023-05-07T23:41:47;58.50;45.75;29.25
55304;PMS7003;65692;51.378;19.824;2023-05-07T23:44:14;52.50;44.25;30.25
55304;PMS7003;65692;51.378;19.824;2023-05-07T23:46:43;60.50;43.50;29.75
55304;PMS7003;65692;51.378;19.824;2023-05-07T23:49:10;59.00;46.50;33.75
55304;PMS7003;65692;51.378;19.824;2023-05-07T23:51:37;57.75;43.50;31.50
55304;PMS7003;65692;51.378;19.824;2023-05-07T23:54:04;50.75;42.00;29.00